sensor_id;sensor_type;location;lat;lon;timestamp;temperature;humidity
1337;DHT22;662;48.814;9.318;2022-07-22T00:00:13;22.70;58.00
1337;DHT22;662;48.814;9.318;2022-07-22T00:02:40;22.70;58.10
1337;DHT22;662;48.814;9.318;2022-07-22T00:05:06;22.70;58.30
1337;DHT22;662;48.814;9.318;2022-07-22T00:07:32;22.60;58.40
1337;DHT22;662;48.814;9.318;2022-07-22T00:09:58;22.60;58.60
1337;DHT22;662;48.814;9.318;2022-07-22T00:12:23;22.50;58.60
1337;DHT22;662;48.814;9.318;2022-07-22T00:14:49;22.50;58.70
1337;DHT22;662;48.814;9.318;2022-07-22T00:17:15;22.50;58.90
1337;DHT22;662;48.814;9.318;2022-07-22T00:19:41;22.50;59.00
1337;DHT22;662;48.814;9.318;2022-07-22T00:22:07;22.40;59.10
1337;DHT22;662;48.814;9.318;2022-07-22T00:24:32;22.40;59.20
1337;DHT22;662;48.814;9.318;2022-07-22T00:26:58;22.40;59.30
1337;DHT22;662;48.814;9.318;2022-07-22T00:29:23;22.30;59.40
1337;DHT22;662;48.814;9.318;2022-07-22T00:31:49;22.30;59.50
1337;DHT22;662;48.814;9.318;2022-07-22T00:34:15;22.30;59.60
1337;DHT22;662;48.814;9.318;2022-07-22T00:36:40;22.20;59.70
1337;DHT22;662;48.814;9.318;2022-07-22T00:39:06;22.20;59.80
1337;DHT22;662;48.814;9.318;2022-07-22T00:41:31;22.20;59.90
1337;DHT22;662;48.814;9.318;2022-07-22T00:44:00;22.20;60.00
1337;DHT22;662;48.814;9.318;2022-07-22T00:46:27;22.10;60.10
1337;DHT22;662;48.814;9.318;2022-07-22T00:48:54;22.10;60.30
1337;DHT22;662;48.814;9.318;2022-07-22T00:51:20;22.10;60.20
1337;DHT22;662;48.814;9.318;2022-07-22T00:53:47;22.10;60.30
1337;DHT22;662;48.814;9.318;2022-07-22T00:56:14;22.00;60.40
1337;DHT22;662;48.814;9.318;2022-07-22T00:58:40;22.00;60.80
1337;DHT22;662;48.814;9.318;2022-07-22T01:01:06;22.00;60.90
1337;DHT22;662;48.814;9.318;2022-07-22T01:03:32;22.00;61.00
1337;DHT22;662;48.814;9.318;2022-07-22T01:05:57;21.90;61.10
1337;DHT22;662;48.814;9.318;2022-07-22T01:08:23;21.90;61.10
1337;DHT22;662;48.814;9.318;2022-07-22T01:10:49;21.90;61.10
1337;DHT22;662;48.814;9.318;2022-07-22T01:13:15;21.90;61.20
1337;DHT22;662;48.814;9.318;2022-07-22T01:15:40;21.90;61.30
1337;DHT22;662;48.814;9.318;2022-07-22T01:18:06;21.90;61.50
1337;DHT22;662;48.814;9.318;2022-07-22T01:20:32;21.90;61.50
1337;DHT22;662;48.814;9.318;2022-07-22T01:22:57;21.80;61.50
1337;DHT22;662;48.814;9.318;2022-07-22T01:25:23;21.80;62.30
1337;DHT22;662;48.814;9.318;2022-07-22T01:27:49;21.80;61.70
1337;DHT22;662;48.814;9.318;2022-07-22T01:30:14;21.80;61.70
1337;DHT22;662;48.814;9.318;2022-07-22T01:32:40;21.80;61.80
1337;DHT22;662;48.814;9.318;2022-07-22T01:35:06;21.70;61.90
1337;DHT22;662;48.814;9.318;2022-07-22T01:37:33;21.70;62.10
1337;DHT22;662;48.814;9.318;2022-07-22T01:39:59;21.70;62.30
1337;DHT22;662;48.814;9.318;2022-07-22T01:42:25;21.60;62.40
1337;DHT22;662;48.814;9.318;2022-07-22T01:44:51;21.60;62.30
1337;DHT22;662;48.814;9.318;2022-07-22T01:47:17;21.60;62.40
1337;DHT22;662;48.814;9.318;2022-07-22T01:49:42;21.60;63.20
1337;DHT22;662;48.814;9.318;2022-07-22T01:52:08;21.50;62.50
1337;DHT22;662;48.814;9.318;2022-07-22T01:54:34;21.50;62.50
1337;DHT22;662;48.814;9.318;2022-07-22T01:57:00;21.50;62.70
1337;DHT22;662;48.814;9.318;2022-07-22T01:59:26;21.50;62.80
1337;DHT22;662;48.814;9.318;2022-07-22T02:01:52;21.50;62.80
1337;DHT22;662;48.814;9.318;2022-07-22T02:04:18;21.50;62.90
1337;DHT22;662;48.814;9.318;2022-07-22T02:06:43;21.40;62.90
1337;DHT22;662;48.814;9.318;2022-07-22T02:09:09;21.40;62.90
1337;DHT22;662;48.814;9.318;2022-07-22T02:11:34;21.40;62.90
1337;DHT22;662;48.814;9.318;2022-07-22T02:14:00;21.40;63.00
1337;DHT22;662;48.814;9.318;2022-07-22T02:16:27;21.40;63.10
1337;DHT22;662;48.814;9.318;2022-07-22T02:18:52;21.40;63.10
1337;DHT22;662;48.814;9.318;2022-07-22T02:21:18;21.30;62.90
1337;DHT22;662;48.814;9.318;2022-07-22T02:23:44;21.30;63.10
1337;DHT22;662;48.814;9.318;2022-07-22T02:26:10;21.30;63.10
1337;DHT22;662;48.814;9.318;2022-07-22T02:28:36;21.30;63.10
1337;DHT22;662;48.814;9.318;2022-07-22T02:31:01;21.30;63.20
1337;DHT22;662;48.814;9.318;2022-07-22T02:33:27;21.30;63.30
1337;DHT22;662;48.814;9.318;2022-07-22T02:35:55;21.20;63.40
1337;DHT22;662;48.814;9.318;2022-07-22T02:38:21;21.20;63.50
1337;DHT22;662;48.814;9.318;2022-07-22T02:40:46;21.20;63.60
1337;DHT22;662;48.814;9.318;2022-07-22T02:43:12;21.10;63.70
1337;DHT22;662;48.814;9.318;2022-07-22T02:45:38;21.10;64.00
1337;DHT22;662;48.814;9.318;2022-07-22T02:48:04;21.10;64.10
1337;DHT22;662;48.814;9.318;2022-07-22T02:50:29;21.10;64.00
1337;DHT22;662;48.814;9.318;2022-07-22T02:52:55;21.00;64.00
1337;DHT22;662;48.814;9.318;2022-07-22T02:55:21;21.00;64.10
1337;DHT22;662;48.814;9.318;2022-07-22T02:57:46;21.00;64.10
1337;DHT22;662;48.814;9.318;2022-07-22T03:00:13;21.00;64.10
1337;DHT22;662;48.814;9.318;2022-07-22T03:02:39;21.00;64.30
1337;DHT22;662;48.814;9.318;2022-07-22T03:05:05;21.00;64.50
1337;DHT22;662;48.814;9.318;2022-07-22T03:07:31;20.90;64.50
1337;DHT22;662;48.814;9.318;2022-07-22T03:09:57;20.90;64.60
1337;DHT22;662;48.814;9.318;2022-07-22T03:12:23;20.90;64.60
1337;DHT22;662;48.814;9.318;2022-07-22T03:14:48;20.90;64.70
1337;DHT22;662;48.814;9.318;2022-07-22T03:17:14;20.90;64.60
1337;DHT22;662;48.814;9.318;2022-07-22T03:19:40;20.90;64.70
1337;DHT22;662;48.814;9.318;2022-07-22T03:22:05;20.80;64.60
1337;DHT22;662;48.814;9.318;2022-07-22T03:24:31;20.80;64.60
1337;DHT22;662;48.814;9.318;2022-07-22T03:26:57;20.80;64.60
1337;DHT22;662;48.814;9.318;2022-07-22T03:29:23;20.80;64.60
1337;DHT22;662;48.814;9.318;2022-07-22T03:31:48;20.70;64.60
1337;DHT22;662;48.814;9.318;2022-07-22T03:34:14;20.70;64.70
1337;DHT22;662;48.814;9.318;2022-07-22T03:36:40;20.70;64.80
1337;DHT22;662;48.814;9.318;2022-07-22T03:39:06;20.70;64.90
1337;DHT22;662;48.814;9.318;2022-07-22T03:41:31;20.70;65.10
1337;DHT22;662;48.814;9.318;2022-07-22T03:43:57;20.60;65.10
1337;DHT22;662;48.814;9.318;2022-07-22T03:46:23;20.60;65.00
1337;DHT22;662;48.814;9.318;2022-07-22T03:48:48;20.60;65.10
1337;DHT22;662;48.814;9.318;2022-07-22T03:51:14;20.60;65.20
1337;DHT22;662;48.814;9.318;2022-07-22T03:53:40;20.60;65.30
1337;DHT22;662;48.814;9.318;2022-07-22T03:56:06;20.60;65.20
1337;DHT22;662;48.814;9.318;2022-07-22T03:58:31;20.60;65.30
1337;DHT22;662;48.814;9.318;2022-07-22T04:00:57;20.50;65.20
1337;DHT22;662;48.814;9.318;2022-07-22T04:03:22;20.50;65.30
1337;DHT22;662;48.814;9.318;2022-07-22T04:05:48;20.50;65.40
1337;DHT22;662;48.814;9.318;2022-07-22T04:08:16;20.50;65.40
1337;DHT22;662;48.814;9.318;2022-07-22T04:10:42;20.50;65.50
1337;DHT22;662;48.814;9.318;2022-07-22T04:13:08;20.50;65.50
1337;DHT22;662;48.814;9.318;2022-07-22T04:15:33;20.50;65.60
1337;DHT22;662;48.814;9.318;2022-07-22T04:17:59;20.50;65.70
1337;DHT22;662;48.814;9.318;2022-07-22T04:20:25;20.50;65.80
1337;DHT22;662;48.814;9.318;2022-07-22T04:22:50;20.50;65.70
1337;DHT22;662;48.814;9.318;2022-07-22T04:25:16;20.50;65.80
1337;DHT22;662;48.814;9.318;2022-07-22T04:27:42;20.50;65.90
1337;DHT22;662;48.814;9.318;2022-07-22T04:30:08;20.50;66.00
1337;DHT22;662;48.814;9.318;2022-07-22T04:32:33;20.50;65.80
1337;DHT22;662;48.814;9.318;2022-07-22T04:34:59;20.50;65.90
1337;DHT22;662;48.814;9.318;2022-07-22T04:37:25;20.50;66.00
1337;DHT22;662;48.814;9.318;2022-07-22T04:39:50;20.50;66.10
1337;DHT22;662;48.814;9.318;2022-07-22T04:42:16;20.50;66.20
1337;DHT22;662;48.814;9.318;2022-07-22T04:44:42;20.50;66.30
1337;DHT22;662;48.814;9.318;2022-07-22T04:47:10;20.60;66.40
1337;DHT22;662;48.814;9.318;2022-07-22T04:49:38;20.60;66.40
1337;DHT22;662;48.814;9.318;2022-07-22T04:52:04;20.60;66.40
1337;DHT22;662;48.814;9.318;2022-07-22T04:54:30;20.60;66.50
1337;DHT22;662;48.814;9.318;2022-07-22T04:56:55;20.60;66.30
1337;DHT22;662;48.814;9.318;2022-07-22T04:59:21;20.60;66.20
1337;DHT22;662;48.814;9.318;2022-07-22T05:01:46;20.60;66.10
1337;DHT22;662;48.814;9.318;2022-07-22T05:04:12;20.70;66.20
1337;DHT22;662;48.814;9.318;2022-07-22T05:06:38;20.70;66.20
1337;DHT22;662;48.814;9.318;2022-07-22T05:09:04;20.70;66.30
1337;DHT22;662;48.814;9.318;2022-07-22T05:11:30;20.70;66.40
1337;DHT22;662;48.814;9.318;2022-07-22T05:13:56;20.70;66.40
1337;DHT22;662;48.814;9.318;2022-07-22T05:16:21;20.80;66.60
1337;DHT22;662;48.814;9.318;2022-07-22T05:18:47;20.70;66.50
1337;DHT22;662;48.814;9.318;2022-07-22T05:21:13;20.70;66.50
1337;DHT22;662;48.814;9.318;2022-07-22T05:23:38;20.80;66.60
1337;DHT22;662;48.814;9.318;2022-07-22T05:26:04;20.80;66.40
1337;DHT22;662;48.814;9.318;2022-07-22T05:28:30;20.90;66.40
1337;DHT22;662;48.814;9.318;2022-07-22T05:30:56;20.90;66.30
1337;DHT22;662;48.814;9.318;2022-07-22T05:33:22;21.00;66.10
1337;DHT22;662;48.814;9.318;2022-07-22T05:35:47;21.00;65.90
1337;DHT22;662;48.814;9.318;2022-07-22T05:38:13;21.00;65.80
1337;DHT22;662;48.814;9.318;2022-07-22T05:40:39;21.10;65.80
1337;DHT22;662;48.814;9.318;2022-07-22T05:43:04;21.10;65.90
1337;DHT22;662;48.814;9.318;2022-07-22T05:45:30;21.10;65.90
1337;DHT22;662;48.814;9.318;2022-07-22T05:47:56;21.20;66.00
1337;DHT22;662;48.814;9.318;2022-07-22T05:50:21;21.30;66.00
1337;DHT22;662;48.814;9.318;2022-07-22T05:52:47;21.30;65.80
1337;DHT22;662;48.814;9.318;2022-07-22T05:55:13;21.30;65.70
1337;DHT22;662;48.814;9.318;2022-07-22T05:57:38;21.40;65.60
1337;DHT22;662;48.814;9.318;2022-07-22T06:00:05;21.50;65.50
1337;DHT22;662;48.814;9.318;2022-07-22T06:02:31;21.50;65.20
1337;DHT22;662;48.814;9.318;2022-07-22T06:04:57;21.60;65.60
1337;DHT22;662;48.814;9.318;2022-07-22T06:07:23;21.70;65.10
1337;DHT22;662;48.814;9.318;2022-07-22T06:09:51;21.70;65.00
1337;DHT22;662;48.814;9.318;2022-07-22T06:12:16;21.80;64.70
1337;DHT22;662;48.814;9.318;2022-07-22T06:14:42;21.80;64.70
1337;DHT22;662;48.814;9.318;2022-07-22T06:17:07;21.90;64.80
1337;DHT22;662;48.814;9.318;2022-07-22T06:19:33;21.90;64.50
1337;DHT22;662;48.814;9.318;2022-07-22T06:21:59;22.00;64.40
1337;DHT22;662;48.814;9.318;2022-07-22T06:24:24;22.00;64.20
1337;DHT22;662;48.814;9.318;2022-07-22T06:26:50;22.10;63.80
1337;DHT22;662;48.814;9.318;2022-07-22T06:29:16;22.20;63.70
1337;DHT22;662;48.814;9.318;2022-07-22T06:31:42;22.20;63.50
1337;DHT22;662;48.814;9.318;2022-07-22T06:34:08;22.30;63.60
1337;DHT22;662;48.814;9.318;2022-07-22T06:36:34;22.30;63.40
1337;DHT22;662;48.814;9.318;2022-07-22T06:39:00;22.30;63.10
1337;DHT22;662;48.814;9.318;2022-07-22T06:41:25;22.40;63.30
1337;DHT22;662;48.814;9.318;2022-07-22T06:43:51;22.40;63.30
1337;DHT22;662;48.814;9.318;2022-07-22T06:46:17;22.40;63.00
1337;DHT22;662;48.814;9.318;2022-07-22T06:48:43;22.50;62.80
1337;DHT22;662;48.814;9.318;2022-07-22T06:51:08;22.60;62.50
1337;DHT22;662;48.814;9.318;2022-07-22T06:53:34;22.60;62.10
1337;DHT22;662;48.814;9.318;2022-07-22T06:56:00;22.70;61.90
1337;DHT22;662;48.814;9.318;2022-07-22T06:58:26;22.80;61.70
1337;DHT22;662;48.814;9.318;2022-07-22T07:00:52;22.90;61.40
1337;DHT22;662;48.814;9.318;2022-07-22T07:03:18;22.90;60.90
1337;DHT22;662;48.814;9.318;2022-07-22T07:05:44;23.00;60.80
1337;DHT22;662;48.814;9.318;2022-07-22T07:08:10;23.10;60.70
1337;DHT22;662;48.814;9.318;2022-07-22T07:10:35;23.20;60.60
1337;DHT22;662;48.814;9.318;2022-07-22T07:13:04;23.30;60.70
1337;DHT22;662;48.814;9.318;2022-07-22T07:15:30;23.30;60.10
1337;DHT22;662;48.814;9.318;2022-07-22T07:17:56;23.40;60.00
1337;DHT22;662;48.814;9.318;2022-07-22T07:20:22;23.50;60.20
1337;DHT22;662;48.814;9.318;2022-07-22T07:22:48;23.50;60.00
1337;DHT22;662;48.814;9.318;2022-07-22T07:25:15;23.60;59.80
1337;DHT22;662;48.814;9.318;2022-07-22T07:27:41;23.60;59.70
1337;DHT22;662;48.814;9.318;2022-07-22T07:30:07;23.70;59.60
1337;DHT22;662;48.814;9.318;2022-07-22T07:32:35;23.70;59.40
1337;DHT22;662;48.814;9.318;2022-07-22T07:35:05;23.80;59.50
1337;DHT22;662;48.814;9.318;2022-07-22T07:37:31;23.80;59.40
1337;DHT22;662;48.814;9.318;2022-07-22T07:39:57;23.90;59.20
1337;DHT22;662;48.814;9.318;2022-07-22T07:42:23;24.00;59.10
1337;DHT22;662;48.814;9.318;2022-07-22T07:44:49;24.10;59.10
1337;DHT22;662;48.814;9.318;2022-07-22T07:47:14;24.20;58.90
1337;DHT22;662;48.814;9.318;2022-07-22T07:49:44;24.20;58.50
1337;DHT22;662;48.814;9.318;2022-07-22T07:52:10;24.30;58.40
1337;DHT22;662;48.814;9.318;2022-07-22T07:54:38;24.30;58.30
1337;DHT22;662;48.814;9.318;2022-07-22T07:57:03;24.40;58.10
1337;DHT22;662;48.814;9.318;2022-07-22T07:59:31;24.40;58.20
1337;DHT22;662;48.814;9.318;2022-07-22T08:01:56;24.50;58.70
1337;DHT22;662;48.814;9.318;2022-07-22T08:04:22;24.50;57.90
1337;DHT22;662;48.814;9.318;2022-07-22T08:06:48;24.60;57.80
1337;DHT22;662;48.814;9.318;2022-07-22T08:09:13;24.60;57.50
1337;DHT22;662;48.814;9.318;2022-07-22T08:11:39;24.70;57.30
1337;DHT22;662;48.814;9.318;2022-07-22T08:14:04;24.80;57.30
1337;DHT22;662;48.814;9.318;2022-07-22T08:16:30;24.90;57.20
1337;DHT22;662;48.814;9.318;2022-07-22T08:18:56;25.00;56.90
1337;DHT22;662;48.814;9.318;2022-07-22T08:21:22;25.00;56.60
1337;DHT22;662;48.814;9.318;2022-07-22T08:23:47;25.10;56.30
1337;DHT22;662;48.814;9.318;2022-07-22T08:26:13;25.10;56.00
1337;DHT22;662;48.814;9.318;2022-07-22T08:28:39;25.20;56.50
1337;DHT22;662;48.814;9.318;2022-07-22T08:31:05;25.30;56.30
1337;DHT22;662;48.814;9.318;2022-07-22T08:33:30;25.30;55.60
1337;DHT22;662;48.814;9.318;2022-07-22T08:35:56;25.40;55.60
1337;DHT22;662;48.814;9.318;2022-07-22T08:38:21;25.50;55.70
1337;DHT22;662;48.814;9.318;2022-07-22T08:40:48;25.60;55.60
1337;DHT22;662;48.814;9.318;2022-07-22T08:43:14;25.70;55.20
1337;DHT22;662;48.814;9.318;2022-07-22T08:45:40;25.80;54.90
1337;DHT22;662;48.814;9.318;2022-07-22T08:48:06;25.80;54.50
1337;DHT22;662;48.814;9.318;2022-07-22T08:50:32;25.90;54.50
1337;DHT22;662;48.814;9.318;2022-07-22T08:52:57;26.00;54.50
1337;DHT22;662;48.814;9.318;2022-07-22T08:55:24;26.10;54.50
1337;DHT22;662;48.814;9.318;2022-07-22T08:57:51;26.20;54.30
1337;DHT22;662;48.814;9.318;2022-07-22T09:00:20;26.20;54.20
1337;DHT22;662;48.814;9.318;2022-07-22T09:02:46;26.30;54.20
1337;DHT22;662;48.814;9.318;2022-07-22T09:05:14;26.40;54.00
1337;DHT22;662;48.814;9.318;2022-07-22T09:07:42;26.50;53.70
1337;DHT22;662;48.814;9.318;2022-07-22T09:10:18;26.60;53.80
1337;DHT22;662;48.814;9.318;2022-07-22T09:12:54;26.70;54.00
1337;DHT22;662;48.814;9.318;2022-07-22T09:15:29;26.90;54.30
1337;DHT22;662;48.814;9.318;2022-07-22T09:17:56;27.00;53.80
1337;DHT22;662;48.814;9.318;2022-07-22T09:20:22;27.20;53.70
1337;DHT22;662;48.814;9.318;2022-07-22T09:22:49;27.30;53.50
1337;DHT22;662;48.814;9.318;2022-07-22T09:27:54;27.60;51.90
1337;DHT22;662;48.814;9.318;2022-07-22T09:30:25;27.70;51.60
1337;DHT22;662;48.814;9.318;2022-07-22T09:32:52;27.80;51.40
1337;DHT22;662;48.814;9.318;2022-07-22T09:35:20;28.00;51.30
1337;DHT22;662;48.814;9.318;2022-07-22T09:37:49;28.10;50.40
1337;DHT22;662;48.814;9.318;2022-07-22T09:40:20;28.30;50.30
1337;DHT22;662;48.814;9.318;2022-07-22T09:42:54;28.40;50.30
1337;DHT22;662;48.814;9.318;2022-07-22T09:45:23;28.50;51.00
1337;DHT22;662;48.814;9.318;2022-07-22T09:47:50;28.70;50.00
1337;DHT22;662;48.814;9.318;2022-07-22T09:50:18;28.80;49.00
1337;DHT22;662;48.814;9.318;2022-07-22T09:52:45;28.90;49.80
1337;DHT22;662;48.814;9.318;2022-07-22T09:55:10;29.10;48.90
1337;DHT22;662;48.814;9.318;2022-07-22T09:57:36;29.40;48.40
1337;DHT22;662;48.814;9.318;2022-07-22T10:00:04;30.10;47.70
1337;DHT22;662;48.814;9.318;2022-07-22T10:02:36;31.40;45.10
1337;DHT22;662;48.814;9.318;2022-07-22T10:05:05;32.70;43.40
1337;DHT22;662;48.814;9.318;2022-07-22T10:07:31;33.70;41.10
1337;DHT22;662;48.814;9.318;2022-07-22T10:09:57;34.50;39.20
1337;DHT22;662;48.814;9.318;2022-07-22T10:12:23;35.20;36.30
1337;DHT22;662;48.814;9.318;2022-07-22T10:14:49;35.70;36.10
1337;DHT22;662;48.814;9.318;2022-07-22T10:17:15;36.10;34.40
1337;DHT22;662;48.814;9.318;2022-07-22T10:19:41;36.70;33.50
1337;DHT22;662;48.814;9.318;2022-07-22T10:25:05;37.80;32.50
1337;DHT22;662;48.814;9.318;2022-07-22T10:30:33;38.80;30.60
1337;DHT22;662;48.814;9.318;2022-07-22T10:33:18;39.20;31.30
1337;DHT22;662;48.814;9.318;2022-07-22T10:36:00;39.60;30.00
1337;DHT22;662;48.814;9.318;2022-07-22T10:38:27;39.90;29.60
1337;DHT22;662;48.814;9.318;2022-07-22T10:41:06;40.20;29.00
1337;DHT22;662;48.814;9.318;2022-07-22T10:46:07;40.20;29.20
1337;DHT22;662;48.814;9.318;2022-07-22T10:51:12;40.40;28.90
1337;DHT22;662;48.814;9.318;2022-07-22T10:53:42;40.60;28.70
1337;DHT22;662;48.814;9.318;2022-07-22T11:01:20;41.40;27.70
1337;DHT22;662;48.814;9.318;2022-07-22T11:03:47;41.50;28.00
1337;DHT22;662;48.814;9.318;2022-07-22T11:08:53;41.90;27.20
1337;DHT22;662;48.814;9.318;2022-07-22T11:14:19;42.20;26.20
1337;DHT22;662;48.814;9.318;2022-07-22T11:16:48;42.40;26.00
1337;DHT22;662;48.814;9.318;2022-07-22T11:19:14;42.50;26.40
1337;DHT22;662;48.814;9.318;2022-07-22T11:21:40;42.60;26.60
1337;DHT22;662;48.814;9.318;2022-07-22T11:24:07;42.60;25.50
1337;DHT22;662;48.814;9.318;2022-07-22T11:26:43;42.70;26.40
1337;DHT22;662;48.814;9.318;2022-07-22T11:29:11;42.90;26.10
1337;DHT22;662;48.814;9.318;2022-07-22T11:31:40;43.20;26.00
1337;DHT22;662;48.814;9.318;2022-07-22T11:34:10;43.40;25.30
1337;DHT22;662;48.814;9.318;2022-07-22T11:36:39;43.40;24.90
1337;DHT22;662;48.814;9.318;2022-07-22T11:39:06;43.40;24.60
1337;DHT22;662;48.814;9.318;2022-07-22T11:41:33;43.50;25.00
1337;DHT22;662;48.814;9.318;2022-07-22T11:43:59;43.60;24.50
1337;DHT22;662;48.814;9.318;2022-07-22T11:46:26;43.50;24.60
1337;DHT22;662;48.814;9.318;2022-07-22T11:48:53;43.60;24.90
1337;DHT22;662;48.814;9.318;2022-07-22T11:51:19;43.70;24.50
1337;DHT22;662;48.814;9.318;2022-07-22T11:53:45;43.90;24.70
1337;DHT22;662;48.814;9.318;2022-07-22T11:56:11;44.00;24.20
1337;DHT22;662;48.814;9.318;2022-07-22T12:01:14;43.90;24.30
1337;DHT22;662;48.814;9.318;2022-07-22T12:03:47;44.00;24.60
1337;DHT22;662;48.814;9.318;2022-07-22T12:06:15;44.00;25.00
1337;DHT22;662;48.814;9.318;2022-07-22T12:08:43;44.10;24.70
1337;DHT22;662;48.814;9.318;2022-07-22T12:11:15;44.10;24.20
1337;DHT22;662;48.814;9.318;2022-07-22T12:13:43;44.00;24.20
1337;DHT22;662;48.814;9.318;2022-07-22T12:16:28;44.00;24.60
1337;DHT22;662;48.814;9.318;2022-07-22T12:21:29;44.40;24.70
1337;DHT22;662;48.814;9.318;2022-07-22T12:24:04;44.40;24.10
1337;DHT22;662;48.814;9.318;2022-07-22T12:29:27;44.30;24.20
1337;DHT22;662;48.814;9.318;2022-07-22T12:31:59;44.30;24.50
1337;DHT22;662;48.814;9.318;2022-07-22T12:36:55;44.30;24.60
1337;DHT22;662;48.814;9.318;2022-07-22T12:39:21;44.20;24.50
1337;DHT22;662;48.814;9.318;2022-07-22T12:41:52;44.20;24.70
1337;DHT22;662;48.814;9.318;2022-07-22T12:44:24;44.30;24.50
1337;DHT22;662;48.814;9.318;2022-07-22T12:46:53;44.00;24.60
1337;DHT22;662;48.814;9.318;2022-07-22T12:49:22;43.90;24.60
1337;DHT22;662;48.814;9.318;2022-07-22T12:52:11;44.00;24.40
1337;DHT22;662;48.814;9.318;2022-07-22T12:54:38;44.00;24.20
1337;DHT22;662;48.814;9.318;2022-07-22T12:57:05;43.90;23.10
1337;DHT22;662;48.814;9.318;2022-07-22T12:59:31;43.40;23.20
1337;DHT22;662;48.814;9.318;2022-07-22T13:01:56;43.30;23.70
1337;DHT22;662;48.814;9.318;2022-07-22T13:04:22;43.30;24.10
1337;DHT22;662;48.814;9.318;2022-07-22T13:06:48;43.30;25.10
1337;DHT22;662;48.814;9.318;2022-07-22T13:09:14;43.20;24.60
1337;DHT22;662;48.814;9.318;2022-07-22T13:11:40;43.10;25.10
1337;DHT22;662;48.814;9.318;2022-07-22T13:14:09;43.20;24.70
1337;DHT22;662;48.814;9.318;2022-07-22T13:16:35;43.30;24.50
1337;DHT22;662;48.814;9.318;2022-07-22T13:19:01;43.30;23.90
1337;DHT22;662;48.814;9.318;2022-07-22T13:21:27;43.20;24.20
1337;DHT22;662;48.814;9.318;2022-07-22T13:23:53;43.50;24.90
1337;DHT22;662;48.814;9.318;2022-07-22T13:26:18;43.80;25.00
1337;DHT22;662;48.814;9.318;2022-07-22T13:28:44;44.00;24.20
1337;DHT22;662;48.814;9.318;2022-07-22T13:31:10;44.30;24.20
1337;DHT22;662;48.814;9.318;2022-07-22T13:33:35;44.50;24.00
1337;DHT22;662;48.814;9.318;2022-07-22T13:36:02;44.50;23.20
1337;DHT22;662;48.814;9.318;2022-07-22T13:38:28;44.40;23.20
1337;DHT22;662;48.814;9.318;2022-07-22T13:40:53;44.30;23.40
1337;DHT22;662;48.814;9.318;2022-07-22T13:43:20;44.30;23.30
1337;DHT22;662;48.814;9.318;2022-07-22T13:45:46;44.40;23.50
1337;DHT22;662;48.814;9.318;2022-07-22T13:48:12;44.40;23.50
1337;DHT22;662;48.814;9.318;2022-07-22T13:50:38;44.30;23.70
1337;DHT22;662;48.814;9.318;2022-07-22T13:53:03;44.20;23.90
1337;DHT22;662;48.814;9.318;2022-07-22T13:55:29;44.30;23.50
1337;DHT22;662;48.814;9.318;2022-07-22T13:57:56;44.20;23.50
1337;DHT22;662;48.814;9.318;2022-07-22T14:00:23;44.10;23.20
1337;DHT22;662;48.814;9.318;2022-07-22T14:02:49;44.10;23.30
1337;DHT22;662;48.814;9.318;2022-07-22T14:05:16;44.20;23.60
1337;DHT22;662;48.814;9.318;2022-07-22T14:07:42;44.20;23.20
1337;DHT22;662;48.814;9.318;2022-07-22T14:10:09;44.20;23.10
1337;DHT22;662;48.814;9.318;2022-07-22T14:12:34;44.30;23.50
1337;DHT22;662;48.814;9.318;2022-07-22T14:15:00;44.40;23.70
1337;DHT22;662;48.814;9.318;2022-07-22T14:17:26;44.50;23.40
1337;DHT22;662;48.814;9.318;2022-07-22T14:19:52;44.50;23.30
1337;DHT22;662;48.814;9.318;2022-07-22T14:22:17;44.10;23.30
1337;DHT22;662;48.814;9.318;2022-07-22T14:24:43;44.00;23.80
1337;DHT22;662;48.814;9.318;2022-07-22T14:27:09;43.90;23.50
1337;DHT22;662;48.814;9.318;2022-07-22T14:29:34;43.80;23.40
1337;DHT22;662;48.814;9.318;2022-07-22T14:32:00;43.80;23.30
1337;DHT22;662;48.814;9.318;2022-07-22T14:34:26;43.80;23.30
1337;DHT22;662;48.814;9.318;2022-07-22T14:36:51;43.90;23.50
1337;DHT22;662;48.814;9.318;2022-07-22T14:39:17;44.00;23.50
1337;DHT22;662;48.814;9.318;2022-07-22T14:41:43;44.10;23.30
1337;DHT22;662;48.814;9.318;2022-07-22T14:44:12;44.30;23.30
1337;DHT22;662;48.814;9.318;2022-07-22T14:46:38;44.30;22.90
1337;DHT22;662;48.814;9.318;2022-07-22T14:49:04;44.20;23.60
1337;DHT22;662;48.814;9.318;2022-07-22T14:51:29;44.20;23.50
1337;DHT22;662;48.814;9.318;2022-07-22T14:53:55;44.00;23.30
1337;DHT22;662;48.814;9.318;2022-07-22T14:56:21;43.60;23.90
1337;DHT22;662;48.814;9.318;2022-07-22T14:58:46;43.30;24.10
1337;DHT22;662;48.814;9.318;2022-07-22T15:01:12;42.90;23.30
1337;DHT22;662;48.814;9.318;2022-07-22T15:03:38;42.40;24.20
1337;DHT22;662;48.814;9.318;2022-07-22T15:06:04;42.10;24.60
1337;DHT22;662;48.814;9.318;2022-07-22T15:08:30;41.80;25.10
1337;DHT22;662;48.814;9.318;2022-07-22T15:10:56;41.60;24.10
1337;DHT22;662;48.814;9.318;2022-07-22T15:13:21;41.30;24.10
1337;DHT22;662;48.814;9.318;2022-07-22T15:15:47;41.20;25.10
1337;DHT22;662;48.814;9.318;2022-07-22T15:18:13;40.90;25.60
1337;DHT22;662;48.814;9.318;2022-07-22T15:20:39;40.80;25.70
1337;DHT22;662;48.814;9.318;2022-07-22T15:23:05;40.50;26.10
1337;DHT22;662;48.814;9.318;2022-07-22T15:25:30;40.30;26.30
1337;DHT22;662;48.814;9.318;2022-07-22T15:27:56;40.00;26.40
1337;DHT22;662;48.814;9.318;2022-07-22T15:30:23;39.70;26.80
1337;DHT22;662;48.814;9.318;2022-07-22T15:32:49;39.40;27.30
1337;DHT22;662;48.814;9.318;2022-07-22T15:35:15;38.80;27.30
1337;DHT22;662;48.814;9.318;2022-07-22T15:37:40;38.30;28.00
1337;DHT22;662;48.814;9.318;2022-07-22T15:40:08;38.10;28.60
1337;DHT22;662;48.814;9.318;2022-07-22T15:42:34;37.80;28.70
1337;DHT22;662;48.814;9.318;2022-07-22T15:44:59;37.40;28.80
1337;DHT22;662;48.814;9.318;2022-07-22T15:47:25;37.20;29.20
1337;DHT22;662;48.814;9.318;2022-07-22T15:49:51;37.00;29.30
1337;DHT22;662;48.814;9.318;2022-07-22T15:52:16;36.90;29.60
1337;DHT22;662;48.814;9.318;2022-07-22T15:54:43;36.80;30.00
1337;DHT22;662;48.814;9.318;2022-07-22T15:57:08;36.70;30.40
1337;DHT22;662;48.814;9.318;2022-07-22T15:59:53;36.50;30.00
1337;DHT22;662;48.814;9.318;2022-07-22T16:02:18;36.30;29.70
1337;DHT22;662;48.814;9.318;2022-07-22T16:04:44;36.20;29.80
1337;DHT22;662;48.814;9.318;2022-07-22T16:07:09;36.00;30.20
1337;DHT22;662;48.814;9.318;2022-07-22T16:09:35;35.80;30.40
1337;DHT22;662;48.814;9.318;2022-07-22T16:12:01;35.70;30.80
1337;DHT22;662;48.814;9.318;2022-07-22T16:14:26;35.50;31.20
1337;DHT22;662;48.814;9.318;2022-07-22T16:16:52;35.30;31.60
1337;DHT22;662;48.814;9.318;2022-07-22T16:19:18;35.10;31.50
1337;DHT22;662;48.814;9.318;2022-07-22T16:21:44;35.00;31.80
1337;DHT22;662;48.814;9.318;2022-07-22T16:24:09;34.80;31.90
1337;DHT22;662;48.814;9.318;2022-07-22T16:26:35;34.60;32.40
1337;DHT22;662;48.814;9.318;2022-07-22T16:29:01;34.50;32.60
1337;DHT22;662;48.814;9.318;2022-07-22T16:31:27;34.30;32.70
1337;DHT22;662;48.814;9.318;2022-07-22T16:33:53;34.20;33.10
1337;DHT22;662;48.814;9.318;2022-07-22T16:36:19;34.10;33.20
1337;DHT22;662;48.814;9.318;2022-07-22T16:38:45;34.10;33.50
1337;DHT22;662;48.814;9.318;2022-07-22T16:41:10;34.10;33.50
1337;DHT22;662;48.814;9.318;2022-07-22T16:43:36;34.00;33.10
1337;DHT22;662;48.814;9.318;2022-07-22T16:46:01;34.10;33.20